createdAt,value
2022-08-02T00:02:53.514Z,21.00
2022-08-02T00:07:08.393Z,21.00
2022-08-02T00:11:32.652Z,21.00
2022-08-02T00:15:46.289Z,21.10
2022-08-02T00:20:03.210Z,21.10
2022-08-02T00:24:29.539Z,21.30
2022-08-02T00:28:45.911Z,21.40
2022-08-02T00:33:03.256Z,21.30
2022-08-02T00:37:18.810Z,21.20
2022-08-02T00:41:33.244Z,21.10
2022-08-02T00:46:02.495Z,21.20
2022-08-02T00:50:20.258Z,21.10
2022-08-02T00:54:36.395Z,21.00
2022-08-02T00:58:53.563Z,21.00
2022-08-02T01:03:17.108Z,20.90
2022-08-02T01:07:33.194Z,20.80
2022-08-02T01:11:47.567Z,20.70
2022-08-02T01:16:10.685Z,20.60
2022-08-02T01:21:02.878Z,20.40
2022-08-02T01:25:40.242Z,20.30
2022-08-02T01:30:00.940Z,20.20
2022-08-02T01:34:22.149Z,20.10
2022-08-02T01:38:42.330Z,20.20
2022-08-02T01:43:00.703Z,20.20
2022-08-02T01:47:30.721Z,20.20
2022-08-02T01:52:03.646Z,20.20
2022-08-02T01:56:23.843Z,20.30
2022-08-02T02:00:44.912Z,20.50
2022-08-02T02:05:03.091Z,20.50
2022-08-02T02:09:18.416Z,20.50
2022-08-02T02:13:36.492Z,20.60
2022-08-02T02:18:12.614Z,20.60
2022-08-02T02:22:31.755Z,20.70
2022-08-02T02:26:52.360Z,20.70
2022-08-02T02:31:10.015Z,20.70
2022-08-02T02:35:27.153Z,20.70
2022-08-02T02:39:45.780Z,20.60
2022-08-02T02:44:07.000Z,20.50
2022-08-02T02:48:24.697Z,20.30
2022-08-02T02:52:41.433Z,20.30
2022-08-02T02:57:01.249Z,20.20
2022-08-02T03:01:56.018Z,20.10
2022-08-02T03:06:15.845Z,20.00
2022-08-02T03:10:33.991Z,20.00
2022-08-02T03:14:49.744Z,20.00
2022-08-02T03:19:07.754Z,20.00
2022-08-02T03:23:21.517Z,20.00
2022-08-02T03:27:36.888Z,20.00
2022-08-02T03:31:54.754Z,20.00
2022-08-02T03:36:13.042Z,20.00
2022-08-02T03:40:30.587Z,19.90
2022-08-02T03:44:47.851Z,19.90
2022-08-02T03:49:07.212Z,19.90
2022-08-02T03:53:23.117Z,19.80
2022-08-02T03:57:42.794Z,19.80
2022-08-02T04:02:01.238Z,19.80
2022-08-02T04:06:27.268Z,19.80
2022-08-02T04:11:01.967Z,19.80
2022-08-02T04:15:20.239Z,19.80
2022-08-02T04:19:45.726Z,19.90
2022-08-02T04:24:08.008Z,20.00
2022-08-02T04:28:29.198Z,20.20
2022-08-02T04:32:46.649Z,20.30
2022-08-02T04:37:04.980Z,20.50
2022-08-02T04:41:20.779Z,20.60
2022-08-02T04:45:36.142Z,20.70
2022-08-02T04:49:52.679Z,20.80
2022-08-02T04:54:09.457Z,20.80
2022-08-02T04:58:41.506Z,20.80
2022-08-02T05:02:57.115Z,20.80
2022-08-02T05:07:12.995Z,20.90
2022-08-02T05:11:36.180Z,20.90
2022-08-02T05:15:55.428Z,20.90
2022-08-02T05:20:20.494Z,21.10
2022-08-02T05:24:35.587Z,21.20
2022-08-02T05:28:49.951Z,21.30
2022-08-02T05:33:08.037Z,21.50
2022-08-02T05:37:22.749Z,21.70
2022-08-02T05:41:47.516Z,21.70
2022-08-02T05:46:04.369Z,21.80
2022-08-02T05:50:19.617Z,22.00
2022-08-02T05:54:46.098Z,22.20
2022-08-02T05:59:08.228Z,22.40
2022-08-02T06:03:27.177Z,22.70
2022-08-02T06:07:44.979Z,23.00
2022-08-02T06:12:03.069Z,23.10
2022-08-02T06:16:32.120Z,23.20
2022-08-02T06:20:51.584Z,23.20
2022-08-02T06:25:48.452Z,23.20
2022-08-02T06:29:53.989Z,23.30
2022-08-02T06:34:10.822Z,23.20
2022-08-02T06:38:31.574Z,23.20
2022-08-02T06:42:58.146Z,23.30
2022-08-02T06:47:18.114Z,23.20
2022-08-02T06:51:34.585Z,23.30
2022-08-02T06:55:51.031Z,23.20
2022-08-02T07:00:28.802Z,23.10
2022-08-02T07:04:45.992Z,22.90
2022-08-02T07:09:19.883Z,22.80
2022-08-02T07:13:39.670Z,22.90
2022-08-02T07:17:57.891Z,23.00
2022-08-02T07:22:14.268Z,23.00
2022-08-02T07:26:28.270Z,23.20
2022-08-02T07:30:44.593Z,23.40
2022-08-02T07:35:07.000Z,23.70
2022-08-02T07:39:24.237Z,23.90
2022-08-02T07:43:43.864Z,24.00
2022-08-02T07:47:58.508Z,23.80
2022-08-02T07:52:16.054Z,23.90
2022-08-02T07:56:33.018Z,24.00
2022-08-02T08:00:49.629Z,24.00
2022-08-02T08:05:08.674Z,24.20
2022-08-02T08:09:27.521Z,24.50
2022-08-02T08:13:45.436Z,24.50
2022-08-02T08:18:02.084Z,24.50
2022-08-02T08:22:19.333Z,24.60
2022-08-02T08:26:40.421Z,24.90
2022-08-02T08:30:57.600Z,25.00
2022-08-02T08:35:14.915Z,25.30
2022-08-02T08:39:34.658Z,25.20
2022-08-02T08:44:11.232Z,25.30
2022-08-02T08:48:31.878Z,25.10
2022-08-02T08:53:06.223Z,25.10
2022-08-02T08:57:24.992Z,25.00
2022-08-02T09:01:49.621Z,24.80
2022-08-02T09:06:08.691Z,24.60
2022-08-02T09:10:40.235Z,24.40
2022-08-02T09:14:57.542Z,24.30
2022-08-02T09:19:23.706Z,24.50
2022-08-02T09:23:43.103Z,24.70
2022-08-02T09:28:05.088Z,24.90
2022-08-02T09:32:31.531Z,25.20
2022-08-02T09:36:54.704Z,25.30
2022-08-02T09:41:21.902Z,25.60
2022-08-02T09:45:40.193Z,26.30
2022-08-02T09:54:26.466Z,27.10
2022-08-02T09:58:46.517Z,27.50
2022-08-02T10:03:21.575Z,27.90
2022-08-02T10:07:40.498Z,28.00
2022-08-02T10:11:57.088Z,28.00
2022-08-02T10:16:12.846Z,28.00
2022-08-02T10:20:28.390Z,28.50
2022-08-02T10:24:47.968Z,28.60
2022-08-02T10:29:11.030Z,28.20
2022-08-02T10:33:31.760Z,28.00
2022-08-02T10:37:49.589Z,28.40
2022-08-02T10:42:03.784Z,28.60
2022-08-02T10:46:45.558Z,28.50
2022-08-02T10:51:04.515Z,28.70
2022-08-02T10:55:22.389Z,28.00
2022-08-02T10:59:41.610Z,27.90
2022-08-02T11:04:09.750Z,28.50
2022-08-02T11:08:30.320Z,28.70
2022-08-02T11:17:21.981Z,29.70
2022-08-02T11:21:38.747Z,29.90
2022-08-02T11:26:03.532Z,30.70
2022-08-02T11:30:26.826Z,30.90
2022-08-02T11:34:45.625Z,30.40
2022-08-02T11:39:16.925Z,31.00
2022-08-02T11:43:37.373Z,31.30
2022-08-02T11:52:11.766Z,32.30
2022-08-02T11:56:35.515Z,31.80
2022-08-02T12:00:55.209Z,31.60
2022-08-02T12:05:18.677Z,31.80
2022-08-02T12:09:41.086Z,31.70
2022-08-02T12:13:58.340Z,32.20
2022-08-02T12:18:34.776Z,32.80
2022-08-02T12:22:50.145Z,33.50
2022-08-02T12:27:06.427Z,33.70
2022-08-02T12:31:24.276Z,34.30
2022-08-02T12:35:37.623Z,34.40
2022-08-02T12:39:51.324Z,33.50
2022-08-02T12:44:15.523Z,33.60
2022-08-02T12:48:52.168Z,33.80
2022-08-02T12:53:16.234Z,34.30
2022-08-02T12:57:29.355Z,35.00
2022-08-02T13:01:42.576Z,35.50
2022-08-02T13:05:59.300Z,35.70
2022-08-02T13:10:22.683Z,35.70
2022-08-02T13:14:42.273Z,34.90
2022-08-02T13:18:55.688Z,34.80
2022-08-02T13:23:10.198Z,34.30
2022-08-02T13:27:34.988Z,34.40
2022-08-02T13:31:48.071Z,35.40
2022-08-02T13:36:01.237Z,36.20
2022-08-02T13:40:23.172Z,36.90
2022-08-02T13:44:36.846Z,37.80
2022-08-02T13:48:50.011Z,38.90
2022-08-02T13:53:03.143Z,39.30
2022-08-02T13:57:17.676Z,39.70
2022-08-02T14:01:31.019Z,40.50
2022-08-02T14:05:48.294Z,40.50
2022-08-02T14:10:02.175Z,40.80
2022-08-02T14:14:17.485Z,41.10
2022-08-02T14:18:30.732Z,40.70
2022-08-02T14:22:43.988Z,40.50
2022-08-02T14:26:57.280Z,40.00
2022-08-02T14:31:11.825Z,40.50
2022-08-02T14:35:25.191Z,41.60
2022-08-02T14:39:43.678Z,42.60
2022-08-02T14:44:11.507Z,43.60
2022-08-02T14:48:26.081Z,44.20
2022-08-02T14:52:39.235Z,44.60
2022-08-02T14:56:52.365Z,45.20
2022-08-02T15:01:05.873Z,45.40
2022-08-02T15:05:20.664Z,45.60
2022-08-02T15:09:34.004Z,45.20
2022-08-02T15:13:52.839Z,45.20
2022-08-02T15:18:06.435Z,45.30
2022-08-02T15:22:20.925Z,45.30
2022-08-02T15:26:34.101Z,45.10
2022-08-02T15:30:47.274Z,45.40
2022-08-02T15:35:00.422Z,45.80
2022-08-02T15:39:14.942Z,46.00
2022-08-02T15:43:28.215Z,45.90
2022-08-02T15:47:41.361Z,46.10
2022-08-02T15:52:01.438Z,46.90
2022-08-02T15:56:15.956Z,46.40
2022-08-02T16:00:35.098Z,46.60
2022-08-02T16:04:48.628Z,46.60
2022-08-02T16:09:01.790Z,46.40
2022-08-02T16:13:36.349Z,46.30
2022-08-02T16:17:54.242Z,46.60
2022-08-02T16:22:10.959Z,46.30
2022-08-02T16:26:26.437Z,46.10
2022-08-02T16:30:42.078Z,46.10
2022-08-02T16:35:07.712Z,45.70
2022-08-02T16:39:22.394Z,44.30
2022-08-02T16:43:35.591Z,42.90
2022-08-02T16:47:57.441Z,41.60
2022-08-02T16:52:11.724Z,41.60
2022-08-02T16:56:24.995Z,41.40
2022-08-02T17:00:38.454Z,40.80
2022-08-02T17:05:00.985Z,40.70
2022-08-02T17:10:04.659Z,40.60
2022-08-02T17:13:47.243Z,40.30
2022-08-02T17:18:01.313Z,39.80
2022-08-02T17:22:15.996Z,39.90
2022-08-02T17:26:31.130Z,40.00
2022-08-02T17:30:44.270Z,40.20
2022-08-02T17:35:00.244Z,40.30
2022-08-02T17:39:18.645Z,40.10
2022-08-02T17:43:33.617Z,39.30
2022-08-02T17:48:04.473Z,38.90
2022-08-02T17:52:51.021Z,37.90
2022-08-02T17:56:55.698Z,37.20
2022-08-02T18:01:24.008Z,36.10
2022-08-02T18:05:40.054Z,34.90
2022-08-02T18:10:08.870Z,33.80
2022-08-02T18:14:24.402Z,32.90
2022-08-02T18:18:39.559Z,32.00
2022-08-02T18:22:58.852Z,31.20
2022-08-02T18:27:13.067Z,30.20
2022-08-02T18:31:27.916Z,29.40
2022-08-02T18:35:41.043Z,28.70
2022-08-02T18:39:54.157Z,28.30
2022-08-02T18:44:09.300Z,27.90
2022-08-02T18:48:23.824Z,27.70
2022-08-02T18:52:43.554Z,27.30
2022-08-02T18:57:00.733Z,27.00
2022-08-02T19:01:32.687Z,26.70
2022-08-02T19:05:53.412Z,26.50
2022-08-02T19:10:08.032Z,26.40
2022-08-02T19:14:27.618Z,26.30
2022-08-02T19:18:41.851Z,26.10
2022-08-02T19:22:56.760Z,26.10
2022-08-02T19:27:13.999Z,26.10
2022-08-02T19:31:28.229Z,26.10
2022-08-02T19:36:01.442Z,26.00
2022-08-02T19:40:20.738Z,25.80
2022-08-02T19:44:36.576Z,25.60
2022-08-02T19:48:50.139Z,25.40
2022-08-02T19:53:03.261Z,25.20
2022-08-02T19:57:20.733Z,25.10
2022-08-02T20:01:38.305Z,25.10
2022-08-02T20:05:53.539Z,25.10
2022-08-02T20:10:10.855Z,25.20
2022-08-02T20:14:28.010Z,25.20
2022-08-02T20:18:41.776Z,25.10
2022-08-02T20:23:33.598Z,25.10
2022-08-02T20:27:51.174Z,25.00
2022-08-02T20:32:07.748Z,25.00
2022-08-02T20:36:21.135Z,24.90
2022-08-02T20:40:34.548Z,24.90
2022-08-02T20:44:47.679Z,24.80
2022-08-02T20:49:05.530Z,24.70
2022-08-02T20:53:23.655Z,24.60
2022-08-02T20:57:59.866Z,24.40
2022-08-02T21:02:12.910Z,24.30
2022-08-02T21:06:30.966Z,24.10
2022-08-02T21:10:52.279Z,24.00
2022-08-02T21:15:06.766Z,23.90
2022-08-02T21:19:19.879Z,23.80
2022-08-02T21:23:36.623Z,23.70
2022-08-02T21:27:51.444Z,23.60
2022-08-02T21:32:07.386Z,23.50
2022-08-02T21:36:20.556Z,23.40
2022-08-02T21:40:35.481Z,23.30
2022-08-02T21:44:50.699Z,23.10
2022-08-02T21:49:03.972Z,23.00
2022-08-02T21:53:19.050Z,23.00
2022-08-02T21:57:51.569Z,22.90
2022-08-02T22:02:04.796Z,22.70
2022-08-02T22:06:21.562Z,22.60
2022-08-02T22:10:57.946Z,22.50
2022-08-02T22:15:14.677Z,22.40
2022-08-02T22:19:27.809Z,22.40
2022-08-02T22:23:51.129Z,22.40
2022-08-02T22:28:34.989Z,22.20
2022-08-02T22:32:56.989Z,22.20
2022-08-02T22:38:16.502Z,22.20
2022-08-02T22:42:01.990Z,22.20
2022-08-02T22:46:16.688Z,22.20
2022-08-02T22:50:31.436Z,22.10
2022-08-02T22:54:44.908Z,21.90
2022-08-02T23:03:29.738Z,21.70
2022-08-02T23:07:44.313Z,21.70
2022-08-02T23:11:57.398Z,21.70
2022-08-02T23:16:27.979Z,21.60
2022-08-02T23:20:41.074Z,21.50
2022-08-02T23:24:56.744Z,21.40
2022-08-02T23:29:09.907Z,21.40
2022-08-02T23:33:23.275Z,21.30
2022-08-02T23:37:59.379Z,21.30
2022-08-02T23:42:11.275Z,21.30
2022-08-02T23:46:24.767Z,21.50
2022-08-02T23:50:37.971Z,21.50
2022-08-02T23:54:51.070Z,21.50
2022-08-02T23:59:07.674Z,21.40
